sensor_id;sensor_type;location;lat;lon;timestamp;temperature;humidity
40676;DHT22;26359;48.750;9.314;2023-07-20T00:00:27;20.40;99.90
40676;DHT22;26359;48.750;9.314;2023-07-20T00:03:09;20.30;99.90
40676;DHT22;26359;48.750;9.314;2023-07-20T00:05:34;20.30;99.90
40676;DHT22;26359;48.750;9.314;2023-07-20T00:08:00;20.20;99.90
40676;DHT22;26359;48.750;9.314;2023-07-20T00:10:25;20.20;99.90
40676;DHT22;26359;48.750;9.314;2023-07-20T00:12:51;20.10;99.90
40676;DHT22;26359;48.750;9.314;2023-07-20T00:15:16;20.10;99.90
40676;DHT22;26359;48.750;9.314;2023-07-20T00:17:42;20.10;99.90
40676;DHT22;26359;48.750;9.314;2023-07-20T00:20:10;20.00;99.90
40676;DHT22;26359;48.750;9.314;2023-07-20T00:22:36;20.00;99.90
40676;DHT22;26359;48.750;9.314;2023-07-20T00:25:02;20.00;99.90
40676;DHT22;26359;48.750;9.314;2023-07-20T00:27:28;20.00;99.50
40676;DHT22;26359;48.750;9.314;2023-07-20T00:29:53;19.90;99.80
40676;DHT22;26359;48.750;9.314;2023-07-20T00:32:19;19.90;99.70
40676;DHT22;26359;48.750;9.314;2023-07-20T00:34:44;19.90;99.50
40676;DHT22;26359;48.750;9.314;2023-07-20T00:37:10;19.90;99.40
40676;DHT22;26359;48.750;9.314;2023-07-20T00:39:35;19.80;99.10
40676;DHT22;26359;48.750;9.314;2023-07-20T00:42:01;19.80;99.20
40676;DHT22;26359;48.750;9.314;2023-07-20T00:44:26;19.70;99.10
40676;DHT22;26359;48.750;9.314;2023-07-20T00:46:52;19.70;98.50
40676;DHT22;26359;48.750;9.314;2023-07-20T00:49:17;19.60;98.80
40676;DHT22;26359;48.750;9.314;2023-07-20T00:51:46;19.60;98.60
40676;DHT22;26359;48.750;9.314;2023-07-20T00:54:13;19.60;98.70
40676;DHT22;26359;48.750;9.314;2023-07-20T00:56:39;19.50;99.00
40676;DHT22;26359;48.750;9.314;2023-07-20T00:59:05;19.40;99.00
40676;DHT22;26359;48.750;9.314;2023-07-20T01:01:31;19.40;98.60
40676;DHT22;26359;48.750;9.314;2023-07-20T01:03:56;19.40;99.30
40676;DHT22;26359;48.750;9.314;2023-07-20T01:06:33;19.30;99.20
40676;DHT22;26359;48.750;9.314;2023-07-20T01:09:18;19.30;98.90
40676;DHT22;26359;48.750;9.314;2023-07-20T01:14:14;19.30;99.10
40676;DHT22;26359;48.750;9.314;2023-07-20T01:16:40;19.30;99.40
40676;DHT22;26359;48.750;9.314;2023-07-20T01:19:06;19.20;99.70
40676;DHT22;26359;48.750;9.314;2023-07-20T01:21:40;19.20;99.90
40676;DHT22;26359;48.750;9.314;2023-07-20T01:24:31;19.20;99.90
40676;DHT22;26359;48.750;9.314;2023-07-20T01:33:07;19.10;99.90
40676;DHT22;26359;48.750;9.314;2023-07-20T01:35:33;19.00;99.90
40676;DHT22;26359;48.750;9.314;2023-07-20T01:38:00;19.00;99.90
40676;DHT22;26359;48.750;9.314;2023-07-20T01:40:26;19.00;99.90
40676;DHT22;26359;48.750;9.314;2023-07-20T01:42:52;19.00;99.90
40676;DHT22;26359;48.750;9.314;2023-07-20T01:45:19;19.00;99.90
40676;DHT22;26359;48.750;9.314;2023-07-20T01:47:44;19.00;99.90
40676;DHT22;26359;48.750;9.314;2023-07-20T01:50:10;19.00;99.90
40676;DHT22;26359;48.750;9.314;2023-07-20T01:52:35;19.00;99.90
40676;DHT22;26359;48.750;9.314;2023-07-20T01:55:01;18.90;99.90
40676;DHT22;26359;48.750;9.314;2023-07-20T01:57:27;18.90;99.90
40676;DHT22;26359;48.750;9.314;2023-07-20T01:59:52;18.80;99.90
40676;DHT22;26359;48.750;9.314;2023-07-20T02:02:18;18.80;99.90
40676;DHT22;26359;48.750;9.314;2023-07-20T02:04:44;18.70;99.90
40676;DHT22;26359;48.750;9.314;2023-07-20T02:07:09;18.60;99.90
40676;DHT22;26359;48.750;9.314;2023-07-20T02:09:35;18.70;99.90
40676;DHT22;26359;48.750;9.314;2023-07-20T02:12:00;18.60;99.90
40676;DHT22;26359;48.750;9.314;2023-07-20T02:14:26;18.60;99.90
40676;DHT22;26359;48.750;9.314;2023-07-20T02:16:51;18.60;99.90
40676;DHT22;26359;48.750;9.314;2023-07-20T02:19:18;18.60;99.90
40676;DHT22;26359;48.750;9.314;2023-07-20T02:21:44;18.50;99.90
40676;DHT22;26359;48.750;9.314;2023-07-20T02:24:09;18.40;99.90
40676;DHT22;26359;48.750;9.314;2023-07-20T02:26:35;18.40;99.90
40676;DHT22;26359;48.750;9.314;2023-07-20T02:29:00;18.40;99.90
40676;DHT22;26359;48.750;9.314;2023-07-20T02:31:29;18.30;99.90
40676;DHT22;26359;48.750;9.314;2023-07-20T02:33:54;18.20;99.90
40676;DHT22;26359;48.750;9.314;2023-07-20T02:36:20;18.30;99.90
40676;DHT22;26359;48.750;9.314;2023-07-20T02:38:45;18.30;99.90
40676;DHT22;26359;48.750;9.314;2023-07-20T02:41:11;18.20;99.90
40676;DHT22;26359;48.750;9.314;2023-07-20T02:43:37;18.10;99.90
40676;DHT22;26359;48.750;9.314;2023-07-20T02:46:02;18.10;99.90
40676;DHT22;26359;48.750;9.314;2023-07-20T02:48:28;18.10;99.90
40676;DHT22;26359;48.750;9.314;2023-07-20T02:50:54;18.10;99.90
40676;DHT22;26359;48.750;9.314;2023-07-20T02:53:20;18.00;99.90
40676;DHT22;26359;48.750;9.314;2023-07-20T02:55:46;18.00;99.90
40676;DHT22;26359;48.750;9.314;2023-07-20T02:58:12;18.00;99.90
40676;DHT22;26359;48.750;9.314;2023-07-20T03:00:37;17.90;99.90
40676;DHT22;26359;48.750;9.314;2023-07-20T03:03:03;17.90;99.90
40676;DHT22;26359;48.750;9.314;2023-07-20T03:05:28;17.90;99.90
40676;DHT22;26359;48.750;9.314;2023-07-20T03:07:55;17.90;99.90
40676;DHT22;26359;48.750;9.314;2023-07-20T03:10:21;17.80;99.90
40676;DHT22;26359;48.750;9.314;2023-07-20T03:12:46;17.70;99.90
40676;DHT22;26359;48.750;9.314;2023-07-20T03:15:12;17.70;99.90
40676;DHT22;26359;48.750;9.314;2023-07-20T03:17:38;17.70;99.90
40676;DHT22;26359;48.750;9.314;2023-07-20T03:20:04;17.60;99.90
40676;DHT22;26359;48.750;9.314;2023-07-20T03:22:30;17.70;99.90
40676;DHT22;26359;48.750;9.314;2023-07-20T03:24:56;17.70;99.90
40676;DHT22;26359;48.750;9.314;2023-07-20T03:27:21;17.70;99.90
40676;DHT22;26359;48.750;9.314;2023-07-20T03:29:47;17.70;99.90
40676;DHT22;26359;48.750;9.314;2023-07-20T03:32:12;17.70;99.90
40676;DHT22;26359;48.750;9.314;2023-07-20T03:34:38;17.70;99.90
40676;DHT22;26359;48.750;9.314;2023-07-20T03:37:04;17.60;99.90
40676;DHT22;26359;48.750;9.314;2023-07-20T03:39:30;17.70;99.90
40676;DHT22;26359;48.750;9.314;2023-07-20T03:41:57;17.70;99.90
40676;DHT22;26359;48.750;9.314;2023-07-20T03:44:22;17.70;99.90
40676;DHT22;26359;48.750;9.314;2023-07-20T03:46:48;17.70;99.90
40676;DHT22;26359;48.750;9.314;2023-07-20T03:49:13;17.70;99.90
40676;DHT22;26359;48.750;9.314;2023-07-20T03:51:39;17.60;99.90
40676;DHT22;26359;48.750;9.314;2023-07-20T03:54:04;17.60;99.90
40676;DHT22;26359;48.750;9.314;2023-07-20T03:56:30;17.60;99.90
40676;DHT22;26359;48.750;9.314;2023-07-20T03:58:59;17.60;99.90
40676;DHT22;26359;48.750;9.314;2023-07-20T04:01:25;17.70;99.90
40676;DHT22;26359;48.750;9.314;2023-07-20T04:03:50;17.70;99.90
40676;DHT22;26359;48.750;9.314;2023-07-20T04:06:16;17.70;99.90
40676;DHT22;26359;48.750;9.314;2023-07-20T04:08:43;17.70;99.90
40676;DHT22;26359;48.750;9.314;2023-07-20T04:11:09;17.70;99.90
40676;DHT22;26359;48.750;9.314;2023-07-20T04:13:34;17.60;99.90
40676;DHT22;26359;48.750;9.314;2023-07-20T04:16:00;17.60;99.90
40676;DHT22;26359;48.750;9.314;2023-07-20T04:18:26;17.60;99.90
40676;DHT22;26359;48.750;9.314;2023-07-20T04:20:51;17.60;99.90
40676;DHT22;26359;48.750;9.314;2023-07-20T04:23:17;17.70;99.90
40676;DHT22;26359;48.750;9.314;2023-07-20T04:25:42;17.70;99.90
40676;DHT22;26359;48.750;9.314;2023-07-20T04:28:08;17.60;99.90
40676;DHT22;26359;48.750;9.314;2023-07-20T04:30:37;17.60;99.90
40676;DHT22;26359;48.750;9.314;2023-07-20T04:33:06;17.60;99.90
40676;DHT22;26359;48.750;9.314;2023-07-20T04:38:14;17.60;99.90
40676;DHT22;26359;48.750;9.314;2023-07-20T04:40:41;17.60;99.90
40676;DHT22;26359;48.750;9.314;2023-07-20T04:43:07;17.70;99.90
40676;DHT22;26359;48.750;9.314;2023-07-20T04:45:32;17.70;99.90
40676;DHT22;26359;48.750;9.314;2023-07-20T04:47:58;17.70;99.90
40676;DHT22;26359;48.750;9.314;2023-07-20T04:50:23;17.70;99.90
40676;DHT22;26359;48.750;9.314;2023-07-20T04:52:50;17.70;99.90
40676;DHT22;26359;48.750;9.314;2023-07-20T04:55:16;17.60;99.90
40676;DHT22;26359;48.750;9.314;2023-07-20T04:57:41;17.60;99.90
40676;DHT22;26359;48.750;9.314;2023-07-20T05:00:07;17.60;99.90
40676;DHT22;26359;48.750;9.314;2023-07-20T05:02:35;17.60;99.90
40676;DHT22;26359;48.750;9.314;2023-07-20T05:05:00;17.70;99.90
40676;DHT22;26359;48.750;9.314;2023-07-20T05:07:27;17.70;99.90
40676;DHT22;26359;48.750;9.314;2023-07-20T05:09:52;17.70;99.90
40676;DHT22;26359;48.750;9.314;2023-07-20T05:12:18;17.70;99.90
40676;DHT22;26359;48.750;9.314;2023-07-20T05:14:43;17.80;99.90
40676;DHT22;26359;48.750;9.314;2023-07-20T05:17:09;17.80;99.90
40676;DHT22;26359;48.750;9.314;2023-07-20T05:19:34;17.90;99.90
40676;DHT22;26359;48.750;9.314;2023-07-20T05:22:00;17.90;99.90
40676;DHT22;26359;48.750;9.314;2023-07-20T05:24:25;18.00;99.90
40676;DHT22;26359;48.750;9.314;2023-07-20T05:26:51;18.00;99.90
40676;DHT22;26359;48.750;9.314;2023-07-20T05:29:16;18.00;99.90
40676;DHT22;26359;48.750;9.314;2023-07-20T05:31:42;18.00;99.90
40676;DHT22;26359;48.750;9.314;2023-07-20T05:34:07;18.10;99.90
40676;DHT22;26359;48.750;9.314;2023-07-20T05:36:33;18.10;99.90
40676;DHT22;26359;48.750;9.314;2023-07-20T05:38:58;18.10;99.90
40676;DHT22;26359;48.750;9.314;2023-07-20T05:41:24;18.10;99.90
40676;DHT22;26359;48.750;9.314;2023-07-20T05:43:49;18.10;99.90
40676;DHT22;26359;48.750;9.314;2023-07-20T05:46:15;18.10;99.90
40676;DHT22;26359;48.750;9.314;2023-07-20T05:48:40;18.20;99.90
40676;DHT22;26359;48.750;9.314;2023-07-20T05:51:06;18.20;99.90
40676;DHT22;26359;48.750;9.314;2023-07-20T05:53:32;18.30;99.90
40676;DHT22;26359;48.750;9.314;2023-07-20T05:55:57;18.30;99.90
40676;DHT22;26359;48.750;9.314;2023-07-20T05:58:23;18.30;99.90
40676;DHT22;26359;48.750;9.314;2023-07-20T06:00:50;18.30;99.90
40676;DHT22;26359;48.750;9.314;2023-07-20T06:03:16;18.30;99.90
40676;DHT22;26359;48.750;9.314;2023-07-20T06:05:42;18.30;99.90
40676;DHT22;26359;48.750;9.314;2023-07-20T06:08:08;18.40;99.90
40676;DHT22;26359;48.750;9.314;2023-07-20T06:10:33;18.40;99.90
40676;DHT22;26359;48.750;9.314;2023-07-20T06:12:59;18.50;99.90
40676;DHT22;26359;48.750;9.314;2023-07-20T06:15:31;18.50;99.90
40676;DHT22;26359;48.750;9.314;2023-07-20T06:17:57;18.60;99.90
40676;DHT22;26359;48.750;9.314;2023-07-20T06:20:23;18.70;99.90
40676;DHT22;26359;48.750;9.314;2023-07-20T06:22:49;18.80;99.90
40676;DHT22;26359;48.750;9.314;2023-07-20T06:25:15;18.90;99.90
40676;DHT22;26359;48.750;9.314;2023-07-20T06:27:41;18.90;99.90
40676;DHT22;26359;48.750;9.314;2023-07-20T06:30:07;18.90;99.90
40676;DHT22;26359;48.750;9.314;2023-07-20T06:32:33;19.00;99.90
40676;DHT22;26359;48.750;9.314;2023-07-20T06:34:58;19.10;99.90
40676;DHT22;26359;48.750;9.314;2023-07-20T06:37:24;19.10;99.90
40676;DHT22;26359;48.750;9.314;2023-07-20T06:39:49;19.20;99.90
40676;DHT22;26359;48.750;9.314;2023-07-20T06:42:15;19.30;99.90
40676;DHT22;26359;48.750;9.314;2023-07-20T06:44:40;19.30;99.90
40676;DHT22;26359;48.750;9.314;2023-07-20T06:47:06;19.40;99.90
40676;DHT22;26359;48.750;9.314;2023-07-20T06:49:31;19.50;99.90
40676;DHT22;26359;48.750;9.314;2023-07-20T06:51:57;19.40;99.90
40676;DHT22;26359;48.750;9.314;2023-07-20T06:54:22;19.40;99.90
40676;DHT22;26359;48.750;9.314;2023-07-20T06:56:48;19.50;99.90
40676;DHT22;26359;48.750;9.314;2023-07-20T06:59:13;19.50;99.90
40676;DHT22;26359;48.750;9.314;2023-07-20T07:01:39;19.60;99.90
40676;DHT22;26359;48.750;9.314;2023-07-20T07:04:04;19.70;99.90
40676;DHT22;26359;48.750;9.314;2023-07-20T07:06:31;19.70;99.90
40676;DHT22;26359;48.750;9.314;2023-07-20T07:08:56;19.80;99.90
40676;DHT22;26359;48.750;9.314;2023-07-20T07:11:22;19.90;99.90
40676;DHT22;26359;48.750;9.314;2023-07-20T07:13:48;19.90;99.90
40676;DHT22;26359;48.750;9.314;2023-07-20T07:16:16;19.90;99.90
40676;DHT22;26359;48.750;9.314;2023-07-20T07:18:44;19.90;99.90
40676;DHT22;26359;48.750;9.314;2023-07-20T07:21:10;19.80;99.90
40676;DHT22;26359;48.750;9.314;2023-07-20T07:23:38;19.80;99.90
40676;DHT22;26359;48.750;9.314;2023-07-20T07:26:04;19.80;99.90
40676;DHT22;26359;48.750;9.314;2023-07-20T07:28:29;19.80;99.90
40676;DHT22;26359;48.750;9.314;2023-07-20T07:30:56;19.80;99.90
40676;DHT22;26359;48.750;9.314;2023-07-20T07:33:22;19.70;99.90
40676;DHT22;26359;48.750;9.314;2023-07-20T07:35:49;19.70;99.90
40676;DHT22;26359;48.750;9.314;2023-07-20T07:38:15;19.70;99.90
40676;DHT22;26359;48.750;9.314;2023-07-20T07:40:40;19.70;99.90
40676;DHT22;26359;48.750;9.314;2023-07-20T07:43:06;19.80;99.90
40676;DHT22;26359;48.750;9.314;2023-07-20T07:45:35;19.90;99.90
40676;DHT22;26359;48.750;9.314;2023-07-20T07:48:04;20.00;99.90
40676;DHT22;26359;48.750;9.314;2023-07-20T07:50:31;20.20;99.90
40676;DHT22;26359;48.750;9.314;2023-07-20T07:52:56;20.30;99.90
40676;DHT22;26359;48.750;9.314;2023-07-20T07:55:22;20.40;99.90
40676;DHT22;26359;48.750;9.314;2023-07-20T07:57:47;20.40;99.90
40676;DHT22;26359;48.750;9.314;2023-07-20T08:00:14;20.50;99.90
40676;DHT22;26359;48.750;9.314;2023-07-20T08:02:43;20.50;99.90
40676;DHT22;26359;48.750;9.314;2023-07-20T08:05:09;20.50;99.90
40676;DHT22;26359;48.750;9.314;2023-07-20T08:07:35;20.60;99.90
40676;DHT22;26359;48.750;9.314;2023-07-20T08:10:00;20.60;99.90
40676;DHT22;26359;48.750;9.314;2023-07-20T08:12:26;20.60;99.90
40676;DHT22;26359;48.750;9.314;2023-07-20T08:14:52;20.60;99.90
40676;DHT22;26359;48.750;9.314;2023-07-20T08:17:17;20.60;99.90
40676;DHT22;26359;48.750;9.314;2023-07-20T08:19:43;20.70;99.90
40676;DHT22;26359;48.750;9.314;2023-07-20T08:22:09;20.70;99.90
40676;DHT22;26359;48.750;9.314;2023-07-20T08:24:38;20.70;99.90
40676;DHT22;26359;48.750;9.314;2023-07-20T08:27:04;20.70;99.90
40676;DHT22;26359;48.750;9.314;2023-07-20T08:29:30;21.00;99.90
40676;DHT22;26359;48.750;9.314;2023-07-20T08:31:55;21.20;99.90
40676;DHT22;26359;48.750;9.314;2023-07-20T08:34:21;21.30;99.90
40676;DHT22;26359;48.750;9.314;2023-07-20T08:36:47;21.30;99.90
40676;DHT22;26359;48.750;9.314;2023-07-20T08:39:12;21.30;99.90
40676;DHT22;26359;48.750;9.314;2023-07-20T08:41:38;21.30;99.90
40676;DHT22;26359;48.750;9.314;2023-07-20T08:44:04;21.20;99.90
40676;DHT22;26359;48.750;9.314;2023-07-20T08:46:31;21.20;99.90
40676;DHT22;26359;48.750;9.314;2023-07-20T08:48:57;21.30;99.90
40676;DHT22;26359;48.750;9.314;2023-07-20T08:51:23;21.50;99.90
40676;DHT22;26359;48.750;9.314;2023-07-20T08:53:51;21.70;99.90
40676;DHT22;26359;48.750;9.314;2023-07-20T08:56:18;21.90;99.90
40676;DHT22;26359;48.750;9.314;2023-07-20T08:58:45;21.90;99.90
40676;DHT22;26359;48.750;9.314;2023-07-20T09:01:11;21.80;99.90
40676;DHT22;26359;48.750;9.314;2023-07-20T09:03:38;21.80;99.90
40676;DHT22;26359;48.750;9.314;2023-07-20T09:06:05;22.00;99.90
40676;DHT22;26359;48.750;9.314;2023-07-20T09:08:31;22.20;99.90
40676;DHT22;26359;48.750;9.314;2023-07-20T09:10:57;22.20;99.90
40676;DHT22;26359;48.750;9.314;2023-07-20T09:13:25;22.10;99.90
40676;DHT22;26359;48.750;9.314;2023-07-20T09:15:54;22.00;99.90
40676;DHT22;26359;48.750;9.314;2023-07-20T09:18:27;22.00;99.90
40676;DHT22;26359;48.750;9.314;2023-07-20T09:21:03;21.90;99.90
40676;DHT22;26359;48.750;9.314;2023-07-20T09:23:33;21.90;99.90
40676;DHT22;26359;48.750;9.314;2023-07-20T09:26:00;22.00;99.90
40676;DHT22;26359;48.750;9.314;2023-07-20T09:28:26;22.20;99.70
40676;DHT22;26359;48.750;9.314;2023-07-20T09:30:52;22.20;99.80
40676;DHT22;26359;48.750;9.314;2023-07-20T09:33:21;22.30;98.80
40676;DHT22;26359;48.750;9.314;2023-07-20T09:35:47;22.20;98.60
40676;DHT22;26359;48.750;9.314;2023-07-20T09:38:14;22.30;98.80
40676;DHT22;26359;48.750;9.314;2023-07-20T09:40:41;22.40;98.70
40676;DHT22;26359;48.750;9.314;2023-07-20T09:43:08;22.60;98.40
40676;DHT22;26359;48.750;9.314;2023-07-20T09:45:43;22.80;98.80
40676;DHT22;26359;48.750;9.314;2023-07-20T09:48:10;22.90;99.20
40676;DHT22;26359;48.750;9.314;2023-07-20T09:50:43;23.20;98.10
40676;DHT22;26359;48.750;9.314;2023-07-20T09:53:13;23.10;98.60
40676;DHT22;26359;48.750;9.314;2023-07-20T09:55:41;23.10;98.50
40676;DHT22;26359;48.750;9.314;2023-07-20T09:58:10;23.00;98.30
40676;DHT22;26359;48.750;9.314;2023-07-20T10:00:40;22.90;99.10
40676;DHT22;26359;48.750;9.314;2023-07-20T10:03:06;22.80;99.10
40676;DHT22;26359;48.750;9.314;2023-07-20T10:05:44;22.80;98.10
40676;DHT22;26359;48.750;9.314;2023-07-20T10:08:12;22.70;98.40
40676;DHT22;26359;48.750;9.314;2023-07-20T10:10:41;22.50;98.50
40676;DHT22;26359;48.750;9.314;2023-07-20T10:13:12;22.40;99.10
40676;DHT22;26359;48.750;9.314;2023-07-20T10:15:53;22.30;99.70
40676;DHT22;26359;48.750;9.314;2023-07-20T10:18:22;22.30;98.40
40676;DHT22;26359;48.750;9.314;2023-07-20T10:20:53;22.40;99.20
40676;DHT22;26359;48.750;9.314;2023-07-20T10:23:19;22.60;99.20
40676;DHT22;26359;48.750;9.314;2023-07-20T10:25:46;22.70;97.40
40676;DHT22;26359;48.750;9.314;2023-07-20T10:28:12;22.90;97.20
40676;DHT22;26359;48.750;9.314;2023-07-20T10:30:38;23.10;96.90
40676;DHT22;26359;48.750;9.314;2023-07-20T10:33:05;23.40;97.20
40676;DHT22;26359;48.750;9.314;2023-07-20T10:35:50;23.70;95.40
40676;DHT22;26359;48.750;9.314;2023-07-20T10:38:15;23.80;95.30
40676;DHT22;26359;48.750;9.314;2023-07-20T10:40:41;23.70;96.20
40676;DHT22;26359;48.750;9.314;2023-07-20T10:43:08;23.90;95.90
40676;DHT22;26359;48.750;9.314;2023-07-20T10:45:45;23.80;95.70
40676;DHT22;26359;48.750;9.314;2023-07-20T10:48:15;23.70;96.50
40676;DHT22;26359;48.750;9.314;2023-07-20T10:50:42;23.50;96.60
40676;DHT22;26359;48.750;9.314;2023-07-20T10:53:11;23.40;95.80
40676;DHT22;26359;48.750;9.314;2023-07-20T10:55:38;23.40;96.70
40676;DHT22;26359;48.750;9.314;2023-07-20T10:58:14;23.60;95.60
40676;DHT22;26359;48.750;9.314;2023-07-20T11:01:02;24.00;95.50
40676;DHT22;26359;48.750;9.314;2023-07-20T11:03:36;24.40;95.30
40676;DHT22;26359;48.750;9.314;2023-07-20T11:09:05;24.80;95.00
40676;DHT22;26359;48.750;9.314;2023-07-20T11:11:39;24.90;92.30
40676;DHT22;26359;48.750;9.314;2023-07-20T11:14:07;25.00;92.20
40676;DHT22;26359;48.750;9.314;2023-07-20T11:16:46;24.80;93.50
40676;DHT22;26359;48.750;9.314;2023-07-20T11:21:44;24.20;92.80
40676;DHT22;26359;48.750;9.314;2023-07-20T11:24:10;24.40;93.00
40676;DHT22;26359;48.750;9.314;2023-07-20T11:26:44;24.50;91.30
40676;DHT22;26359;48.750;9.314;2023-07-20T11:29:11;24.70;92.30
40676;DHT22;26359;48.750;9.314;2023-07-20T11:31:42;24.90;93.40
40676;DHT22;26359;48.750;9.314;2023-07-20T11:34:11;25.00;91.90
40676;DHT22;26359;48.750;9.314;2023-07-20T11:36:39;24.90;92.00
40676;DHT22;26359;48.750;9.314;2023-07-20T11:39:10;25.30;91.70
40676;DHT22;26359;48.750;9.314;2023-07-20T11:41:36;25.60;91.60
40676;DHT22;26359;48.750;9.314;2023-07-20T11:44:02;25.30;89.70
40676;DHT22;26359;48.750;9.314;2023-07-20T11:46:28;25.40;88.80
40676;DHT22;26359;48.750;9.314;2023-07-20T11:49:02;25.60;91.00
40676;DHT22;26359;48.750;9.314;2023-07-20T11:51:29;25.50;90.70
40676;DHT22;26359;48.750;9.314;2023-07-20T11:53:55;25.60;91.30
40676;DHT22;26359;48.750;9.314;2023-07-20T11:56:26;25.80;89.80
40676;DHT22;26359;48.750;9.314;2023-07-20T11:58:55;25.80;90.80
40676;DHT22;26359;48.750;9.314;2023-07-20T12:01:23;25.70;88.30
40676;DHT22;26359;48.750;9.314;2023-07-20T12:03:49;25.60;87.80
40676;DHT22;26359;48.750;9.314;2023-07-20T12:06:15;25.60;89.50
40676;DHT22;26359;48.750;9.314;2023-07-20T12:08:44;26.00;89.00
40676;DHT22;26359;48.750;9.314;2023-07-20T12:11:11;26.10;90.30
40676;DHT22;26359;48.750;9.314;2023-07-20T12:13:43;26.20;86.00
40676;DHT22;26359;48.750;9.314;2023-07-20T12:16:13;26.20;85.20
40676;DHT22;26359;48.750;9.314;2023-07-20T12:18:40;26.20;86.80
40676;DHT22;26359;48.750;9.314;2023-07-20T12:21:06;26.40;88.90
40676;DHT22;26359;48.750;9.314;2023-07-20T12:23:40;26.20;85.70
40676;DHT22;26359;48.750;9.314;2023-07-20T12:26:07;26.30;85.70
40676;DHT22;26359;48.750;9.314;2023-07-20T12:28:39;26.30;87.50
40676;DHT22;26359;48.750;9.314;2023-07-20T12:31:10;26.10;84.60
40676;DHT22;26359;48.750;9.314;2023-07-20T12:33:37;25.80;85.60
40676;DHT22;26359;48.750;9.314;2023-07-20T12:36:03;25.80;84.40
40676;DHT22;26359;48.750;9.314;2023-07-20T12:38:29;26.10;88.30
40676;DHT22;26359;48.750;9.314;2023-07-20T12:40:56;26.50;86.00
40676;DHT22;26359;48.750;9.314;2023-07-20T12:43:22;26.70;82.60
40676;DHT22;26359;48.750;9.314;2023-07-20T12:45:48;26.40;82.20
40676;DHT22;26359;48.750;9.314;2023-07-20T12:48:13;26.30;84.40
40676;DHT22;26359;48.750;9.314;2023-07-20T12:50:39;26.10;83.80
40676;DHT22;26359;48.750;9.314;2023-07-20T12:53:05;25.90;85.80
40676;DHT22;26359;48.750;9.314;2023-07-20T12:55:30;25.80;84.00
40676;DHT22;26359;48.750;9.314;2023-07-20T12:57:56;25.60;82.60
40676;DHT22;26359;48.750;9.314;2023-07-20T13:00:22;25.40;82.70
40676;DHT22;26359;48.750;9.314;2023-07-20T13:02:49;25.70;90.20
40676;DHT22;26359;48.750;9.314;2023-07-20T13:05:14;26.40;84.20
40676;DHT22;26359;48.750;9.314;2023-07-20T13:07:41;26.60;83.60
40676;DHT22;26359;48.750;9.314;2023-07-20T13:10:07;26.90;80.30
40676;DHT22;26359;48.750;9.314;2023-07-20T13:12:34;26.70;79.80
40676;DHT22;26359;48.750;9.314;2023-07-20T13:15:05;26.70;83.20
40676;DHT22;26359;48.750;9.314;2023-07-20T13:17:38;27.00;83.60
40676;DHT22;26359;48.750;9.314;2023-07-20T13:20:05;27.30;82.70
40676;DHT22;26359;48.750;9.314;2023-07-20T13:22:32;27.30;87.00
40676;DHT22;26359;48.750;9.314;2023-07-20T13:24:58;27.20;84.00
40676;DHT22;26359;48.750;9.314;2023-07-20T13:27:23;27.20;81.70
40676;DHT22;26359;48.750;9.314;2023-07-20T13:29:51;27.20;83.00
40676;DHT22;26359;48.750;9.314;2023-07-20T13:32:17;27.30;85.30
40676;DHT22;26359;48.750;9.314;2023-07-20T13:34:44;27.60;86.40
40676;DHT22;26359;48.750;9.314;2023-07-20T13:37:10;28.00;77.90
40676;DHT22;26359;48.750;9.314;2023-07-20T13:39:36;28.00;78.50
40676;DHT22;26359;48.750;9.314;2023-07-20T13:42:02;27.90;78.70
40676;DHT22;26359;48.750;9.314;2023-07-20T13:44:30;27.70;77.60
40676;DHT22;26359;48.750;9.314;2023-07-20T13:46:56;27.70;76.10
40676;DHT22;26359;48.750;9.314;2023-07-20T13:49:21;27.70;79.30
40676;DHT22;26359;48.750;9.314;2023-07-20T13:51:47;27.80;79.00
40676;DHT22;26359;48.750;9.314;2023-07-20T13:54:12;27.70;76.50
40676;DHT22;26359;48.750;9.314;2023-07-20T13:56:38;27.60;77.30
40676;DHT22;26359;48.750;9.314;2023-07-20T13:59:04;27.80;80.40
40676;DHT22;26359;48.750;9.314;2023-07-20T14:01:29;27.80;74.40
40676;DHT22;26359;48.750;9.314;2023-07-20T14:03:56;27.50;77.10
40676;DHT22;26359;48.750;9.314;2023-07-20T14:06:22;27.50;80.80
40676;DHT22;26359;48.750;9.314;2023-07-20T14:08:48;27.80;79.90
40676;DHT22;26359;48.750;9.314;2023-07-20T14:11:15;27.90;77.00
40676;DHT22;26359;48.750;9.314;2023-07-20T14:13:40;28.00;77.60
40676;DHT22;26359;48.750;9.314;2023-07-20T14:16:06;28.20;81.10
40676;DHT22;26359;48.750;9.314;2023-07-20T14:18:32;28.30;76.50
40676;DHT22;26359;48.750;9.314;2023-07-20T14:20:57;28.40;74.40
40676;DHT22;26359;48.750;9.314;2023-07-20T14:23:23;28.30;74.00
40676;DHT22;26359;48.750;9.314;2023-07-20T14:25:49;28.50;72.70
40676;DHT22;26359;48.750;9.314;2023-07-20T14:28:15;28.60;72.80
40676;DHT22;26359;48.750;9.314;2023-07-20T14:30:41;28.50;74.30
40676;DHT22;26359;48.750;9.314;2023-07-20T14:33:07;28.80;73.10
40676;DHT22;26359;48.750;9.314;2023-07-20T14:35:33;28.90;70.50
40676;DHT22;26359;48.750;9.314;2023-07-20T14:37:59;28.60;72.50
40676;DHT22;26359;48.750;9.314;2023-07-20T14:40:25;28.60;73.30
40676;DHT22;26359;48.750;9.314;2023-07-20T14:42:51;28.60;74.40
40676;DHT22;26359;48.750;9.314;2023-07-20T14:45:17;28.60;73.70
40676;DHT22;26359;48.750;9.314;2023-07-20T14:47:46;28.80;71.60
40676;DHT22;26359;48.750;9.314;2023-07-20T14:50:14;28.70;74.50
40676;DHT22;26359;48.750;9.314;2023-07-20T14:52:40;28.70;71.80
40676;DHT22;26359;48.750;9.314;2023-07-20T14:55:05;28.10;73.50
40676;DHT22;26359;48.750;9.314;2023-07-20T14:57:31;28.10;75.10
40676;DHT22;26359;48.750;9.314;2023-07-20T14:59:56;27.70;71.50
40676;DHT22;26359;48.750;9.314;2023-07-20T15:02:22;27.40;72.60
40676;DHT22;26359;48.750;9.314;2023-07-20T15:04:49;27.40;72.70
40676;DHT22;26359;48.750;9.314;2023-07-20T15:07:19;27.40;75.10
40676;DHT22;26359;48.750;9.314;2023-07-20T15:09:45;27.60;74.40
40676;DHT22;26359;48.750;9.314;2023-07-20T15:12:10;27.60;73.60
40676;DHT22;26359;48.750;9.314;2023-07-20T15:14:40;27.60;73.00
40676;DHT22;26359;48.750;9.314;2023-07-20T15:17:06;27.40;71.50
40676;DHT22;26359;48.750;9.314;2023-07-20T15:19:35;27.40;75.90
40676;DHT22;26359;48.750;9.314;2023-07-20T15:22:02;27.40;75.00
40676;DHT22;26359;48.750;9.314;2023-07-20T15:24:28;27.40;73.60
40676;DHT22;26359;48.750;9.314;2023-07-20T15:26:54;27.30;73.60
40676;DHT22;26359;48.750;9.314;2023-07-20T15:29:19;27.20;72.80
40676;DHT22;26359;48.750;9.314;2023-07-20T15:31:46;27.10;72.40
40676;DHT22;26359;48.750;9.314;2023-07-20T15:34:12;26.90;74.20
40676;DHT22;26359;48.750;9.314;2023-07-20T15:36:39;26.90;74.10
40676;DHT22;26359;48.750;9.314;2023-07-20T15:39:05;27.00;74.40
40676;DHT22;26359;48.750;9.314;2023-07-20T15:41:31;27.00;75.20
40676;DHT22;26359;48.750;9.314;2023-07-20T15:43:57;27.30;73.50